Time;durP1;ratioP1;P1;durP2;ratioP2;P2;SDS_P1;SDS_P2;PMS_P1;PMS_P2;Temp;Humidity;BMP_temperature;BMP_pressure;BME280_temperature;BME280_humidity;BME280_pressure;Samples;Min_cycle;Max_cycle;Signal;HPM_P1;HPM_P2
2021/05/13 00:02:19;;;;;;;4.67;3.47;;;;;;;11.14;100.00;99896.50;5070892;28;20175;-74
2021/05/13 00:04:45;;;;;;;3.47;3.23;;;;;;;11.13;100.00;99897.63;5070909;28;20515;-73
2021/05/13 00:07:10;;;;;;;4.73;4.10;;;;;;;11.11;100.00;99889.75;5070996;28;20592;-72
2021/05/13 00:09:38;;;;;;;4.83;2.73;;;;;;;11.07;100.00;99888.03;5069415;28;20186;-73
2021/05/13 00:12:13;;;;;;;4.37;4.07;;;;;;;11.05;100.00;99887.56;5070897;28;20197;-74
2021/05/13 00:14:38;;;;;;;4.57;4.17;;;;;;;11.00;100.00;99888.53;5070716;28;20185;-75
2021/05/13 00:17:03;;;;;;;3.53;3.30;;;;;;;10.99;100.00;99886.91;5070754;28;20178;-75
2021/05/13 00:19:29;;;;;;;3.20;3.00;;;;;;;10.97;100.00;99881.78;5071215;28;20178;-75
2021/05/13 00:21:54;;;;;;;3.17;2.97;;;;;;;10.99;100.00;99885.00;5070575;28;20171;-73
2021/05/13 00:24:19;;;;;;;3.37;3.17;;;;;;;11.06;100.00;99872.75;5070652;28;20175;-73
2021/05/13 00:26:47;;;;;;;4.07;3.77;;;;;;;11.02;100.00;99875.34;5070686;28;20630;-73
2021/05/13 00:29:25;;;;;;;4.17;3.90;;;;;;;11.02;100.00;99873.41;5070275;28;20210;-73
2021/05/13 00:31:51;;;;;;;3.97;3.67;;;;;;;11.07;100.00;99871.63;5073525;28;20559;-73
2021/05/13 00:34:16;;;;;;;3.10;2.80;;;;;;;11.06;100.00;99862.63;5074377;28;20206;-73
2021/05/13 00:36:41;;;;;;;3.93;3.63;;;;;;;11.03;100.00;99864.09;5074267;28;20583;-74
2021/05/13 00:39:09;;;;;;;3.53;3.23;;;;;;;10.98;100.00;99861.50;5074203;28;20260;-73
2021/05/13 00:41:35;;;;;;;3.50;3.30;;;;;;;10.94;100.00;99862.50;5074580;28;20829;-73
2021/05/13 00:44:01;;;;;;;3.80;3.50;;;;;;;10.90;100.00;99859.63;5074289;28;20221;-73
2021/05/13 00:46:27;;;;;;;4.83;4.43;;;;;;;10.85;100.00;99856.25;5074373;28;20491;-73
2021/05/13 00:49:00;;;;;;;3.87;3.57;;;;;;;10.81;100.00;99847.94;5073947;28;20201;-73
2021/05/13 00:51:27;;;;;;;4.90;4.50;;;;;;;10.74;100.00;99853.09;5074202;28;20175;-73
2021/05/13 00:53:55;;;;;;;3.17;2.97;;;;;;;10.71;100.00;99851.03;5074331;28;20170;-72
2021/05/13 00:56:21;;;;;;;3.40;3.20;;;;;;;10.69;100.00;99856.00;5074033;28;20171;-73
2021/05/13 00:58:49;;;;;;;4.20;3.80;;;;;;;10.70;100.00;99863.06;5073699;28;20217;-73
2021/05/13 01:01:16;;;;;;;4.17;3.87;;;;;;;10.70;100.00;99863.91;5074052;28;20167;-73
2021/05/13 01:03:42;;;;;;;3.40;3.10;;;;;;;10.67;100.00;99859.06;5072740;28;20171;-73
2021/05/13 01:06:13;;;;;;;4.00;3.70;;;;;;;10.69;100.00;99856.78;5073957;28;20573;-73
2021/05/13 01:08:39;;;;;;;3.73;3.43;;;;;;;10.71;100.00;99859.22;5072717;28;20294;-74
2021/05/13 01:11:07;;;;;;;4.60;4.27;;;;;;;10.70;100.00;99871.25;5074030;28;20284;-75
2021/05/13 01:13:34;;;;;;;4.97;4.60;;;;;;;10.68;100.00;99868.84;5074220;28;20236;-73
2021/05/13 01:16:23;;;;;;;3.27;3.07;;;;;;;10.65;100.00;99866.78;5074090;28;20171;-73
2021/05/13 01:18:48;;;;;;;5.10;4.70;;;;;;;10.63;100.00;99866.31;5073886;28;20203;-73
2021/05/13 01:21:14;;;;;;;3.77;3.47;;;;;;;10.63;100.00;99868.25;5074464;28;20175;-72
2021/05/13 01:23:39;;;;;;;4.17;3.87;;;;;;;10.63;100.00;99860.03;5074355;28;20179;-73
2021/05/13 01:26:06;;;;;;;3.27;3.07;;;;;;;10.64;100.00;99862.44;5074210;28;20701;-75
2021/05/13 01:28:31;;;;;;;3.50;3.30;;;;;;;10.62;100.00;99861.97;5073587;28;20270;-73
2021/05/13 01:30:57;;;;;;;4.10;3.77;;;;;;;10.61;100.00;99856.84;5073829;28;20178;-74
2021/05/13 01:33:25;;;;;;;6.47;2.40;;;;;;;10.57;100.00;99851.25;5073954;28;20320;-74
2021/05/13 01:35:52;;;;;;;4.70;4.30;;;;;;;10.54;100.00;99849.13;5074160;28;20665;-75
2021/05/13 01:38:20;;;;;;;4.60;4.20;;;;;;;10.54;100.00;99853.78;5074180;28;20175;-74
2021/05/13 01:40:57;;;;;;;4.37;4.07;;;;;;;10.50;100.00;99850.91;5073647;28;20203;-74
2021/05/13 01:43:24;;;;;;;4.63;4.23;;;;;;;10.49;100.00;99848.53;5074375;28;20269;-73
2021/05/13 01:45:50;;;;;;;3.40;3.10;;;;;;;10.47;100.00;99851.56;5074475;28;20178;-74
2021/05/13 01:48:15;;;;;;;4.43;4.13;;;;;;;10.45;100.00;99842.91;5073901;28;20758;-73
2021/05/13 01:50:41;;;;;;;3.97;3.47;;;;;;;10.44;100.00;99844.03;5081617;28;20202;-76
2021/05/13 01:53:07;;;;;;;2.67;2.47;;;;;;;10.43;100.00;99842.44;5077517;28;20174;-76
2021/05/13 01:55:34;;;;;;;9.97;3.90;;;;;;;10.44;100.00;99841.31;5077503;28;20182;-74
2021/05/13 01:58:00;;;;;;;3.20;2.97;;;;;;;10.41;100.00;99841.94;5072917;28;20186;-73
2021/05/13 02:00:25;;;;;;;3.57;3.27;;;;;;;10.42;100.00;99838.09;5073374;28;20185;-73
2021/05/13 02:02:51;;;;;;;3.63;2.90;;;;;;;10.41;100.00;99840.03;5073343;28;20206;-73
2021/05/13 02:05:18;;;;;;;3.43;3.23;;;;;;;10.41;100.00;99834.56;5073133;28;20202;-73
2021/05/13 02:07:43;;;;;;;3.37;3.07;;;;;;;10.41;100.00;99839.19;5072855;28;20202;-73
2021/05/13 02:10:12;;;;;;;2.83;2.63;;;;;;;10.41;100.00;99836.47;5075465;28;20179;-74
2021/05/13 02:12:42;;;;;;;2.90;2.70;;;;;;;10.40;100.00;99832.13;5082872;28;20179;-74
2021/05/13 02:15:10;;;;;;;3.90;3.60;;;;;;;10.43;100.00;99828.78;5085603;28;20189;-73
2021/05/13 02:17:36;;;;;;;4.10;3.73;;;;;;;10.42;100.00;99824.44;5073667;28;20554;-74
2021/05/13 02:20:07;;;;;;;2.93;2.73;;;;;;;10.37;100.00;99822.69;5073598;28;20179;-73
2021/05/13 02:22:32;;;;;;;2.80;2.60;;;;;;;10.35;100.00;99829.59;5073698;28;20250;-74
2021/05/13 02:24:58;;;;;;;6.60;2.77;;;;;;;10.33;100.00;99819.00;5073606;28;20763;-73
2021/05/13 02:27:24;;;;;;;3.10;2.90;;;;;;;10.32;100.00;99820.13;5072228;28;20207;-74
2021/05/13 02:29:49;;;;;;;3.20;2.90;;;;;;;10.33;100.00;99819.00;5071557;28;20198;-75
2021/05/13 02:32:14;;;;;;;3.03;2.83;;;;;;;10.29;100.00;99809.88;5073332;28;20177;-73
2021/05/13 02:34:39;;;;;;;2.80;2.60;;;;;;;10.31;100.00;99810.34;5073936;28;20185;-72
2021/05/13 02:37:05;;;;;;;2.33;2.17;;;;;;;10.29;100.00;99825.44;5072437;28;20167;-74
2021/05/13 02:39:30;;;;;;;2.97;2.77;;;;;;;10.24;100.00;99820.13;5073670;28;20629;-73
2021/05/13 02:41:55;;;;;;;3.20;2.87;;;;;;;10.22;100.00;99823.19;5073848;28;20785;-73
2021/05/13 02:44:21;;;;;;;2.10;2.00;;;;;;;10.23;100.00;99815.81;5073866;28;20177;-73
2021/05/13 02:46:46;;;;;;;3.83;3.53;;;;;;;10.23;100.00;99816.59;5072728;28;20171;-72
2021/05/13 02:49:11;;;;;;;3.10;2.90;;;;;;;10.26;100.00;99812.41;5074095;28;20382;-73
2021/05/13 02:51:37;;;;;;;3.40;2.57;;;;;;;10.24;100.00;99814.66;5073937;28;20183;-72
2021/05/13 02:54:02;;;;;;;2.73;2.53;;;;;;;10.26;100.00;99802.28;5073275;28;20213;-72
2021/05/13 02:56:28;;;;;;;3.03;2.83;;;;;;;10.31;100.00;99806.81;5074000;28;20171;-73
2021/05/13 02:58:53;;;;;;;2.60;2.40;;;;;;;10.35;100.00;99802.28;5073411;28;20186;-74
2021/05/13 03:01:26;;;;;;;3.20;3.00;;;;;;;10.34;100.00;99797.97;5074334;28;20234;-75
2021/05/13 03:03:53;;;;;;;3.07;2.73;;;;;;;10.28;100.00;99802.81;5074211;28;20163;-73
2021/05/13 03:06:19;;;;;;;2.13;1.87;;;;;;;10.23;100.00;99800.22;5073737;28;20182;-73
2021/05/13 03:08:46;;;;;;;2.67;2.47;;;;;;;10.22;100.00;99795.09;5073405;28;20209;-74
2021/05/13 03:11:11;;;;;;;2.33;2.13;;;;;;;10.22;100.00;99801.34;5074138;28;20626;-73
2021/05/13 03:13:37;;;;;;;9.03;4.00;;;;;;;10.22;100.00;99798.63;5073788;28;20220;-74
2021/05/13 03:16:03;;;;;;;2.13;1.93;;;;;;;10.17;100.00;99793.31;5073806;28;20183;-73
2021/05/13 03:18:32;;;;;;;2.23;2.13;;;;;;;10.21;100.00;99802.47;5074456;28;20409;-73
2021/05/13 03:24:15;;;;;;;2.37;2.17;;;;;;;10.32;100.00;99787.38;5071547;28;20159;-73
2021/05/13 03:26:26;;;;;;;2.50;2.30;;;;;;;10.38;100.00;99786.03;5068096;28;20190;-72
2021/05/13 03:28:51;;;;;;;3.20;2.10;;;;;;;10.39;100.00;99782.19;5069684;28;20584;-73
2021/05/13 03:31:17;;;;;;;2.20;2.00;;;;;;;10.42;100.00;99784.28;5071297;28;20181;-73
2021/05/13 03:33:42;;;;;;;1.70;1.60;;;;;;;10.49;100.00;99783.78;5071239;28;20174;-72
2021/05/13 03:36:07;;;;;;;1.87;1.77;;;;;;;10.51;100.00;99789.69;5071179;28;20320;-73
2021/05/13 03:38:33;;;;;;;1.93;1.77;;;;;;;10.45;100.00;99782.84;5071001;28;20189;-73
2021/05/13 03:40:58;;;;;;;1.90;1.80;;;;;;;10.41;100.00;99779.97;5071461;28;20179;-72
2021/05/13 03:43:24;;;;;;;1.63;1.47;;;;;;;10.36;100.00;99774.66;5071110;28;20196;-73
2021/05/13 03:45:49;;;;;;;1.60;1.50;;;;;;;10.31;100.00;99772.13;5071106;28;20604;-73
2021/05/13 03:48:14;;;;;;;1.57;1.47;;;;;;;10.31;100.00;99765.84;5070760;28;20198;-73
2021/05/13 03:50:39;;;;;;;2.73;2.53;;;;;;;10.32;100.00;99770.19;5070956;28;20174;-72
2021/05/13 03:53:06;;;;;;;3.90;2.17;;;;;;;10.31;100.00;99771.31;5070980;28;20178;-72
2021/05/13 03:55:35;;;;;;;1.50;1.40;;;;;;;10.28;100.00;99764.56;5071175;28;20174;-73
2021/05/13 03:58:02;;;;;;;2.13;1.93;;;;;;;10.27;100.00;99770.34;5070688;28;20293;-72
2021/05/13 04:01:18;;;;;;;2.40;1.90;;;;;;;10.27;100.00;99779.34;5071115;28;20182;-72
2021/05/13 04:03:13;;;;;;;1.90;1.80;;;;;;;10.25;100.00;99769.88;5066589;28;20231;-74
2021/05/13 04:05:38;;;;;;;2.93;2.40;;;;;;;10.24;100.00;99762.81;5074936;28;20272;-73
2021/05/13 04:08:07;;;;;;;2.10;2.00;;;;;;;10.25;100.00;99767.94;5075945;28;20201;-72
2021/05/13 04:10:32;;;;;;;2.43;2.23;;;;;;;10.25;100.00;99762.47;5074929;28;20560;-73
2021/05/13 04:13:01;;;;;;;2.23;1.77;;;;;;;10.25;100.00;99756.22;5074782;28;20158;-73
2021/05/13 04:15:26;;;;;;;3.70;1.80;;;;;;;10.22;100.00;99748.69;5074861;28;20204;-73
2021/05/13 04:17:52;;;;;;;2.40;2.20;;;;;;;10.17;100.00;99748.84;5074611;28;20167;-73
2021/05/13 04:20:17;;;;;;;2.10;1.97;;;;;;;10.13;100.00;99744.03;5074928;28;20174;-72
2021/05/13 04:22:42;;;;;;;1.67;1.57;;;;;;;10.09;100.00;99731.34;5074689;28;20209;-73
2021/05/13 04:25:08;;;;;;;2.97;2.77;;;;;;;10.08;100.00;99738.72;5074622;28;20181;-73
2021/05/13 04:27:33;;;;;;;2.60;1.77;;;;;;;10.06;100.00;99738.25;5073084;28;20236;-74
2021/05/13 04:29:59;;;;;;;4.40;3.23;;;;;;;10.07;100.00;99744.53;5074246;28;20245;-73
2021/05/13 04:32:24;;;;;;;2.13;1.93;;;;;;;10.09;100.00;99736.81;5074813;28;20173;-73
2021/05/13 04:34:49;;;;;;;2.40;2.20;;;;;;;10.11;100.00;99734.53;5074447;28;20213;-73
2021/05/13 04:37:15;;;;;;;1.63;1.53;;;;;;;10.14;100.00;99734.72;5074295;28;20171;-73
2021/05/13 04:39:40;;;;;;;1.83;1.60;;;;;;;10.13;100.00;99721.41;5074359;28;20260;-73
2021/05/13 04:42:06;;;;;;;2.70;2.23;;;;;;;10.16;100.00;99726.19;5072917;28;20194;-73
2021/05/13 04:44:33;;;;;;;2.27;1.60;;;;;;;10.16;100.00;99725.41;5074261;28;20185;-73
2021/05/13 04:46:59;;;;;;;6.33;1.83;;;;;;;10.20;100.00;99720.88;5074194;28;20277;-73
2021/05/13 04:49:26;;;;;;;2.43;2.27;;;;;;;10.21;100.00;99723.31;5073780;28;20214;-73
2021/05/13 04:51:51;;;;;;;4.70;2.13;;;;;;;10.22;100.00;99721.38;5074188;28;20179;-73
2021/05/13 04:54:18;;;;;;;1.90;1.80;;;;;;;10.24;100.00;99722.66;5074322;28;20236;-73
2021/05/13 04:56:44;;;;;;;4.80;1.70;;;;;;;10.26;100.00;99711.41;5074009;28;20236;-73
2021/05/13 04:59:10;;;;;;;1.63;1.47;;;;;;;10.31;100.00;99720.22;5073656;28;20198;-73
2021/05/13 05:01:36;;;;;;;1.37;1.33;;;;;;;10.29;100.00;99711.56;5073864;28;20646;-73
2021/05/13 05:04:02;;;;;;;2.13;1.93;;;;;;;10.25;100.00;99707.06;5073706;28;20174;-73
2021/05/13 05:06:28;;;;;;;1.93;1.83;;;;;;;10.26;100.00;99700.47;5073797;28;20181;-73
2021/05/13 05:08:54;;;;;;;2.17;1.93;;;;;;;10.32;100.00;99700.00;5073630;28;20202;-73
2021/05/13 05:11:20;;;;;;;2.23;2.13;;;;;;;10.35;100.00;99704.00;5073867;28;20171;-73
2021/05/13 05:13:46;;;;;;;1.50;1.40;;;;;;;10.34;100.00;99705.13;5073604;28;20684;-73
2021/05/13 05:16:12;;;;;;;2.30;1.47;;;;;;;10.34;99.71;99699.66;5072859;28;20181;-73
2021/05/13 05:18:37;;;;;;;1.20;1.10;;;;;;;10.33;98.91;99698.06;5073309;28;20225;-72
2021/05/13 05:21:03;;;;;;;1.77;1.60;;;;;;;10.31;98.48;99697.59;5073557;28;20179;-73
2021/05/13 05:23:29;;;;;;;1.87;1.50;;;;;;;10.31;98.39;99701.13;5073432;28;20197;-72
2021/05/13 05:25:56;;;;;;;2.40;2.30;;;;;;;10.30;98.30;99707.72;5073527;28;20186;-73
2021/05/13 05:28:23;;;;;;;0.93;0.93;;;;;;;10.30;97.87;99699.53;5072858;28;20787;-73
2021/05/13 05:30:50;;;;;;;0.97;0.97;;;;;;;10.32;98.01;99696.47;5073478;28;20269;-74
2021/05/13 05:33:15;;;;;;;2.50;1.23;;;;;;;10.36;98.10;99695.47;5073261;28;20244;-74
2021/05/13 05:35:40;;;;;;;1.63;1.53;;;;;;;10.39;97.85;99692.06;5073546;28;20202;-73
2021/05/13 05:38:07;;;;;;;5.20;0.73;;;;;;;10.37;97.04;99688.88;5073160;28;20166;-73
2021/05/13 05:40:33;;;;;;;1.20;1.10;;;;;;;10.40;96.51;99693.66;5073462;28;20205;-73
2021/05/13 05:42:59;;;;;;;1.40;1.30;;;;;;;10.48;96.85;99683.84;5073458;28;20289;-74
2021/05/13 05:45:25;;;;;;;1.10;1.00;;;;;;;10.43;95.41;99684.84;5073271;28;20250;-73
2021/05/13 05:47:52;;;;;;;1.27;1.17;;;;;;;10.49;95.97;99685.44;5072860;28;20191;-72
2021/05/13 05:50:19;;;;;;;5.23;2.93;;;;;;;10.56;95.34;99685.75;5073188;28;20688;-74
2021/05/13 05:52:45;;;;;;;1.30;1.10;;;;;;;10.60;95.27;99681.22;5073082;28;20170;-73
2021/05/13 05:55:11;;;;;;;1.87;1.23;;;;;;;10.61;95.72;99684.75;5071578;28;20257;-73
2021/05/13 05:57:37;;;;;;;1.23;1.13;;;;;;;10.67;95.54;99680.69;5072926;28;20281;-73
2021/05/13 06:00:05;;;;;;;1.47;1.27;;;;;;;10.72;95.48;99686.78;5072681;28;20182;-74
2021/05/13 06:02:31;;;;;;;2.33;1.87;;;;;;;10.76;95.08;99688.84;5072540;28;20166;-73
2021/05/13 06:04:56;;;;;;;1.43;1.07;;;;;;;10.78;94.65;99687.38;5072582;28;20226;-73
2021/05/13 06:07:22;;;;;;;3.80;1.40;;;;;;;10.84;94.53;99686.03;5072734;28;20174;-73
2021/05/13 06:09:47;;;;;;;1.23;1.20;;;;;;;10.84;93.42;99687.97;5072607;28;20637;-74
2021/05/13 06:12:13;;;;;;;3.00;1.10;;;;;;;10.83;92.65;99684.44;5072419;28;20185;-72
2021/05/13 06:14:39;;;;;;;1.17;0.80;;;;;;;10.78;92.32;99676.44;5070846;28;20170;-73
2021/05/13 06:17:05;;;;;;;0.80;0.80;;;;;;;10.80;93.31;99671.44;5068665;28;20189;-72
2021/05/13 06:19:30;;;;;;;0.90;0.90;;;;;;;10.78;92.86;99683.84;5071871;28;20250;-73
2021/05/13 06:21:56;;;;;;;0.90;0.83;;;;;;;10.78;92.55;99678.38;5072163;28;20173;-73
2021/05/13 06:24:21;;;;;;;0.80;0.80;;;;;;;10.81;91.56;99675.78;5072059;28;20202;-72
2021/05/13 06:27:04;;;;;;;1.97;1.23;;;;;;;10.85;91.68;99671.28;5071427;28;20549;-75
2021/05/13 06:29:30;;;;;;;3.33;1.17;;;;;;;10.85;91.13;99678.63;5071413;28;20239;-74
2021/05/13 06:31:56;;;;;;;14.37;1.20;;;;;;;10.81;90.25;99681.25;5071945;28;20171;-74
2021/05/13 06:34:22;;;;;;;0.90;0.90;;;;;;;10.86;90.07;99677.53;5071961;28;20171;-74
2021/05/13 06:36:47;;;;;;;0.80;0.80;;;;;;;10.88;88.45;99678.78;5070529;28;20528;-73
2021/05/13 06:39:13;;;;;;;0.93;0.93;;;;;;;10.90;87.64;99681.19;5071742;28;20578;-74
2021/05/13 06:41:41;;;;;;;1.93;1.43;;;;;;;10.95;86.56;99678.25;5071795;28;20183;-73
2021/05/13 06:44:07;;;;;;;1.93;1.83;;;;;;;10.98;85.99;99672.91;5072034;28;20193;-73
2021/05/13 06:46:32;;;;;;;1.10;1.00;;;;;;;10.98;85.56;99675.66;5070367;28;20646;-74
2021/05/13 06:48:57;;;;;;;5.27;1.10;;;;;;;11.10;87.71;99680.41;5071723;28;20194;-74
2021/05/13 06:51:23;;;;;;;0.80;0.53;;;;;;;11.16;86.98;99675.53;5071674;28;20202;-73
2021/05/13 06:53:49;;;;;;;0.77;0.77;;;;;;;11.13;85.92;99678.91;5071592;28;20618;-75
2021/05/13 06:56:15;;;;;;;0.77;0.77;;;;;;;11.19;86.34;99685.81;5071618;28;20202;-73
2021/05/13 06:58:41;;;;;;;0.90;0.73;;;;;;;11.25;87.05;99677.06;5071282;28;20858;-74
2021/05/13 07:01:06;;;;;;;1.13;0.93;;;;;;;11.33;87.84;99678.94;5071454;28;20162;-73
2021/05/13 07:03:32;;;;;;;0.97;0.90;;;;;;;11.32;86.44;99674.59;5071358;28;20171;-75
2021/05/13 07:05:57;;;;;;;0.90;0.90;;;;;;;11.37;84.93;99678.25;5071366;28;20174;-73
2021/05/13 07:08:23;;;;;;;1.00;1.00;;;;;;;11.43;84.68;99676.91;5069661;28;20214;-74
2021/05/13 07:10:48;;;;;;;1.13;1.00;;;;;;;11.35;84.22;99670.38;5059790;28;20211;-73
2021/05/13 07:13:14;;;;;;;0.60;0.60;;;;;;;11.48;84.18;99677.50;5068263;28;20186;-72
2021/05/13 07:15:40;;;;;;;0.80;0.80;;;;;;;11.39;82.37;99667.78;5071069;28;20179;-72
2021/05/13 07:18:11;;;;;;;0.70;0.70;;;;;;;11.46;83.78;99670.78;5071028;28;20182;-72
2021/05/13 07:20:37;;;;;;;4.17;0.83;;;;;;;11.43;82.81;99671.44;5071128;28;20211;-72
2021/05/13 07:23:04;;;;;;;1.60;0.90;;;;;;;11.50;83.85;99672.50;5071134;28;20179;-73
2021/05/13 07:25:29;;;;;;;0.67;0.67;;;;;;;11.60;84.32;99668.56;5071181;28;20171;-73
2021/05/13 07:27:54;;;;;;;1.20;1.10;;;;;;;11.76;82.60;99674.19;5070869;28;20201;-73
2021/05/13 07:30:20;;;;;;;0.70;0.70;;;;;;;11.89;82.29;99671.16;5070717;28;20181;-74
2021/05/13 07:32:47;;;;;;;1.40;0.90;;;;;;;12.02;81.40;99672.00;5070921;28;20253;-74
2021/05/13 07:35:14;;;;;;;0.97;0.97;;;;;;;12.14;82.67;99673.94;5070970;28;20527;-73
2021/05/13 07:37:39;;;;;;;2.77;0.70;;;;;;;12.25;82.74;99672.34;5070982;28;20175;-74
2021/05/13 07:40:05;;;;;;;0.80;0.80;;;;;;;12.30;82.93;99665.88;5070579;28;20181;-72
2021/05/13 07:42:31;;;;;;;1.03;1.03;;;;;;;12.31;79.71;99672.94;5070915;28;20251;-72
2021/05/13 07:44:56;;;;;;;0.70;0.70;;;;;;;12.35;79.69;99680.13;5070726;28;20186;-72
2021/05/13 07:47:23;;;;;;;0.30;0.30;;;;;;;12.34;77.79;99673.03;5070784;28;20220;-73
2021/05/13 07:49:48;;;;;;;0.80;0.60;;;;;;;12.34;77.54;99672.25;5070705;28;20171;-73
2021/05/13 07:52:14;;;;;;;0.60;0.60;;;;;;;12.43;77.94;99672.91;5070853;28;20236;-73
2021/05/13 07:54:39;;;;;;;0.80;0.80;;;;;;;12.47;76.43;99669.16;5070767;28;20174;-73
2021/05/13 07:57:07;;;;;;;0.57;0.57;;;;;;;12.57;76.69;99669.84;5070673;28;20590;-72
2021/05/13 07:59:34;;;;;;;1.43;1.33;;;;;;;12.65;77.38;99672.47;5070428;28;20234;-71
2021/05/13 08:02:00;;;;;;;4.27;1.07;;;;;;;12.58;76.10;99671.44;5066724;28;20187;-71
2021/05/13 08:04:25;;;;;;;0.87;0.70;;;;;;;12.66;78.07;99671.31;5070508;28;20656;-72
2021/05/13 08:06:51;;;;;;;0.77;0.77;;;;;;;12.89;77.80;99674.38;5070674;28;20202;-73
2021/05/13 08:09:16;;;;;;;7.13;1.03;;;;;;;12.89;74.76;99668.91;5051085;28;20257;-72
2021/05/13 08:11:41;;;;;;;1.20;0.53;;;;;;;12.88;74.94;99666.50;5050901;28;20179;-73
2021/05/13 08:14:06;;;;;;;0.63;0.60;;;;;;;12.78;72.98;99667.78;5050553;28;20581;-72
2021/05/13 08:16:32;;;;;;;1.70;0.70;;;;;;;12.97;75.76;99670.69;5050513;28;20892;-73
2021/05/13 08:18:58;;;;;;;0.43;0.43;;;;;;;12.96;72.45;99663.63;5050518;28;20167;-73
2021/05/13 08:21:23;;;;;;;0.87;0.70;;;;;;;13.02;74.57;99666.94;5069906;28;20175;-73
2021/05/13 08:23:48;;;;;;;0.50;0.50;;;;;;;12.98;72.89;99666.81;5070551;28;20167;-74
2021/05/13 08:26:14;;;;;;;0.30;0.30;;;;;;;12.96;71.24;99663.63;5070509;28;20667;-74
2021/05/13 08:28:39;;;;;;;1.10;0.47;;;;;;;12.96;70.64;99662.81;5068738;28;20238;-73
2021/05/13 08:31:04;;;;;;;1.13;0.80;;;;;;;12.90;72.08;99659.53;5070433;28;20171;-73
2021/05/13 08:33:30;;;;;;;1.40;0.73;;;;;;;13.08;74.21;99654.56;5070249;28;20170;-73
2021/05/13 08:35:55;;;;;;;1.70;0.87;;;;;;;13.13;71.29;99643.34;5070266;28;20167;-73
2021/05/13 08:38:20;;;;;;;1.00;0.70;;;;;;;13.24;72.85;99657.41;5070089;28;20209;-73
2021/05/13 08:40:46;;;;;;;0.80;0.50;;;;;;;13.36;70.74;99660.91;5070117;28;20259;-74
2021/05/13 08:43:29;;;;;;;0.50;0.50;;;;;;;13.30;68.68;99650.50;5070209;28;20206;-73
2021/05/13 08:45:56;;;;;;;1.30;1.00;;;;;;;13.27;68.65;99656.69;5070121;28;20174;-73
2021/05/13 08:48:27;;;;;;;0.80;0.40;;;;;;;13.38;70.23;99650.38;5070075;28;20205;-73
2021/05/13 08:50:53;;;;;;;0.67;0.67;;;;;;;13.51;69.28;99656.59;5071088;28;20170;-74
2021/05/13 08:53:20;;;;;;;0.63;0.50;;;;;;;13.58;67.88;99643.06;5072700;28;20186;-74
2021/05/13 08:55:45;;;;;;;1.33;1.23;;;;;;;13.69;69.13;99644.16;5073650;28;20220;-73
2021/05/13 08:58:11;;;;;;;0.80;0.33;;;;;;;13.87;70.51;99644.63;5073420;28;20206;-74
2021/05/13 09:00:37;;;;;;;0.40;0.40;;;;;;;13.97;68.75;99640.56;5074148;28;20175;-73
2021/05/13 09:03:03;;;;;;;0.37;0.37;;;;;;;13.91;67.50;99644.72;5072299;28;20175;-73
2021/05/13 09:05:28;;;;;;;0.53;0.30;;;;;;;13.90;65.32;99641.19;5074196;28;20217;-73
2021/05/13 09:07:55;;;;;;;2.57;0.50;;;;;;;13.82;65.12;99639.41;5073159;28;20595;-73
2021/05/13 09:10:22;;;;;;;1.53;0.50;;;;;;;13.90;68.07;99643.13;5073596;28;20178;-73
2021/05/13 09:12:52;;;;;;;0.43;0.37;;;;;;;13.85;65.79;99637.88;5073427;28;20630;-72
2021/05/13 09:15:23;;;;;;;0.60;0.60;;;;;;;13.84;67.23;99636.28;5072134;28;20231;-71
2021/05/13 09:17:51;;;;;;;0.37;0.37;;;;;;;13.86;66.54;99637.53;5075245;28;20224;-72
2021/05/13 09:20:36;;;;;;;0.70;0.70;;;;;;;13.90;66.00;99637.66;5076160;28;20174;-72
2021/05/13 09:23:12;;;;;;;0.37;0.30;;;;;;;14.12;67.21;99641.72;5074077;28;20212;-72
2021/05/13 09:25:38;;;;;;;0.50;0.50;;;;;;;14.26;66.71;99642.06;5072044;28;20579;-72
2021/05/13 09:28:03;;;;;;;0.20;0.20;;;;;;;14.21;66.49;99634.91;5073151;28;20198;-72
2021/05/13 09:30:30;;;;;;;0.43;0.37;;;;;;;14.24;66.25;99636.13;5073040;28;20253;-72
2021/05/13 09:32:58;;;;;;;0.57;0.53;;;;;;;14.09;65.06;99634.97;5073423;28;20198;-72
2021/05/13 09:35:29;;;;;;;0.60;0.33;;;;;;;14.11;66.51;99640.13;5073164;28;20195;-71
2021/05/13 09:37:58;;;;;;;2.50;0.73;;;;;;;14.33;68.79;99634.00;5073087;28;20177;-72
2021/05/13 09:40:41;;;;;;;1.10;0.97;;;;;;;14.41;66.16;99632.19;5073040;28;20186;-71
2021/05/13 09:43:12;;;;;;;0.30;0.30;;;;;;;14.41;65.86;99634.94;5073135;28;20178;-71
2021/05/13 09:46:00;;;;;;;0.20;0.20;;;;;;;14.39;63.84;99627.06;5072819;28;20166;-72
2021/05/13 09:48:40;;;;;;;1.07;0.33;;;;;;;14.51;65.66;99628.94;5072718;28;20264;-72
2021/05/13 09:51:29;;;;;;;0.20;0.20;;;;;;;14.52;65.12;99627.78;5071361;28;20603;-72
2021/05/13 09:54:15;;;;;;;0.40;0.40;;;;;;;14.59;66.25;99626.00;5072690;28;20257;-72
2021/05/13 09:56:49;;;;;;;0.43;0.37;;;;;;;14.85;67.30;99628.13;5071428;28;20175;-71
2021/05/13 09:59:27;;;;;;;0.70;0.10;;;;;;;14.94;62.67;99625.19;5072487;28;20864;-71
2021/05/13 10:01:57;;;;;;;3.40;0.30;;;;;;;14.82;62.72;99625.31;5071260;28;20625;-72
2021/05/13 10:04:23;;;;;;;1.17;0.50;;;;;;;14.78;63.90;99625.25;5071397;28;20166;-71
2021/05/13 10:06:49;;;;;;;0.53;0.40;;;;;;;14.70;61.54;99623.47;5072681;28;20561;-72
2021/05/13 10:09:17;;;;;;;0.33;0.33;;;;;;;14.72;62.04;99625.88;5072252;28;20202;-72
2021/05/13 10:11:49;;;;;;;0.50;0.50;;;;;;;14.67;63.02;99624.22;5072414;28;20177;-72
2021/05/13 10:14:14;;;;;;;0.20;0.20;;;;;;;14.81;62.57;99620.97;5071991;28;20237;-72
2021/05/13 10:16:41;;;;;;;0.30;0.30;;;;;;;14.83;61.23;99615.91;5070981;28;20175;-72
2021/05/13 10:19:17;;;;;;;0.10;0.10;;;;;;;14.85;61.03;99613.59;5071929;28;20223;-72
2021/05/13 10:21:43;;;;;;;1.83;0.43;;;;;;;14.81;60.18;99616.28;5072114;28;20184;-71
2021/05/13 10:24:11;;;;;;;0.50;0.30;;;;;;;14.99;59.88;99605.63;5072074;28;20166;-72
2021/05/13 10:26:36;;;;;;;0.20;0.20;;;;;;;15.31;59.52;99606.28;5071595;28;20175;-72
2021/05/13 10:29:23;;;;;;;0.93;0.20;;;;;;;15.31;59.37;99606.28;5070602;28;20531;-73
2021/05/13 10:32:00;;;;;;;0.93;0.90;;;;;;;15.51;58.63;99603.53;5070766;28;20166;-73
2021/05/13 10:34:40;;;;;;;0.40;0.37;;;;;;;15.51;58.26;99596.06;5070368;28;20166;-72
2021/05/13 10:37:09;;;;;;;0.60;0.60;;;;;;;15.58;57.44;99598.13;5070544;28;20253;-72
2021/05/13 10:39:35;;;;;;;0.83;0.53;;;;;;;15.61;56.10;99594.66;5070548;28;20166;-73
2021/05/13 10:42:30;;;;;;;0.37;0.37;;;;;;;15.76;58.02;99586.28;5070863;28;20650;-71
2021/05/13 10:44:56;;;;;;;0.53;0.43;;;;;;;15.72;55.70;99590.16;5071255;28;20178;-72
2021/05/13 10:47:29;;;;;;;0.10;0.10;;;;;;;15.47;56.09;99589.66;5071507;28;20174;-73
2021/05/13 10:49:56;;;;;;;0.10;0.10;;;;;;;15.47;57.87;99590.47;5071032;28;20658;-72
2021/05/13 10:52:40;;;;;;;0.40;0.40;;;;;;;15.73;59.97;99580.72;5071240;28;20170;-72
2021/05/13 10:55:08;;;;;;;0.67;0.33;;;;;;;15.82;57.46;99586.81;5071147;28;20174;-72
2021/05/13 10:58:06;;;;;;;0.30;0.30;;;;;;;15.69;57.68;99588.94;5070731;28;20210;-73
2021/05/13 11:00:31;;;;;;;0.13;0.13;;;;;;;15.80;55.75;99580.06;5058572;28;20179;-72
2021/05/13 11:02:57;;;;;;;0.20;0.20;;;;;;;15.77;57.10;99581.63;5071050;28;20170;-72
2021/05/13 11:05:41;;;;;;;0.57;0.27;;;;;;;15.43;55.09;99584.09;5070946;28;20167;-72
2021/05/13 11:08:06;;;;;;;0.27;0.10;;;;;;;15.50;56.47;99572.44;5070700;28;20189;-73
2021/05/13 11:10:52;;;;;;;0.30;0.30;;;;;;;15.63;57.63;99584.13;5070856;28;20220;-72
2021/05/13 11:13:19;;;;;;;0.20;0.20;;;;;;;15.65;56.51;99579.03;5070230;28;20202;-72
2021/05/13 11:15:50;;;;;;;0.40;0.10;;;;;;;15.73;54.55;99580.72;5071225;28;20167;-72
2021/05/13 11:18:17;;;;;;;0.53;0.20;;;;;;;15.69;56.20;99585.38;5070422;28;20174;-72
2021/05/13 11:20:45;;;;;;;2.83;0.50;;;;;;;15.67;57.92;99573.94;5070659;28;20605;-72
2021/05/13 11:23:19;;;;;;;1.20;0.60;;;;;;;15.51;55.28;99571.28;5070663;28;20165;-72
2021/05/13 11:26:02;;;;;;;0.30;0.30;;;;;;;15.58;56.65;99579.66;5070641;28;20173;-72
2021/05/13 11:28:43;;;;;;;0.20;0.20;;;;;;;15.64;56.57;99577.44;5070120;28;20597;-72
2021/05/13 11:31:08;;;;;;;0.20;0.20;;;;;;;15.60;54.91;99577.34;5070804;28;20171;-72
2021/05/13 11:33:57;;;;;;;0.20;0.20;;;;;;;15.76;56.05;99572.53;5070587;28;20578;-72
2021/05/13 11:36:28;;;;;;;1.23;0.37;;;;;;;15.88;55.30;99577.06;5070584;28;20184;-73